Time;durP1;ratioP1;P1;durP2;ratioP2;P2;SDS_P1;SDS_P2;PMS_P1;PMS_P2;Temp;Humidity;BMP_temperature;BMP_pressure;BME280_temperature;BME280_humidity;BME280_pressure;Samples;Min_cycle;Max_cycle;Signal;HPM_P1;HPM_P2
2021/09/23 00:06:59;;;;;;;13.95;5.97;;;;;;;14.67;88.29;100826.27;2904871;82;21018;-67
2021/09/23 00:11:08;;;;;;;9.58;5.53;;;;;;;14.73;88.31;100823.53;2904871;82;20967;-67
2021/09/23 00:15:15;;;;;;;10.75;5.37;;;;;;;14.79;88.18;100814.96;2905047;80;21023;-67
2021/09/23 00:19:19;;;;;;;14.83;6.35;;;;;;;14.78;88.01;100809.26;2905093;82;21023;-67
2021/09/23 00:23:33;;;;;;;16.25;7.05;;;;;;;14.75;88.36;100796.98;2853012;83;21071;-66
2021/09/23 00:27:35;;;;;;;17.37;5.53;;;;;;;14.76;88.83;100788.47;2854868;81;20976;-66
2021/09/23 00:31:38;;;;;;;20.85;7.03;;;;;;;14.74;88.49;100773.02;2913905;80;21029;-67
2021/09/23 00:35:40;;;;;;;11.00;7.12;;;;;;;14.71;89.01;100771.48;2914367;80;21026;-67
2021/09/23 00:39:42;;;;;;;6.95;4.33;;;;;;;14.74;89.72;100768.52;2914133;81;20987;-66
2021/09/23 00:43:44;;;;;;;10.68;5.33;;;;;;;14.89;90.04;100764.08;2914202;81;21046;-66
2021/09/23 00:47:47;;;;;;;7.92;4.65;;;;;;;15.01;90.07;100763.42;2905073;80;20995;-67
2021/09/23 00:51:52;;;;;;;8.00;4.97;;;;;;;15.12;89.29;100764.59;2859651;82;20990;-67
2021/09/23 00:55:58;;;;;;;10.72;4.60;;;;;;;15.21;88.97;100761.53;2855431;83;21014;-66
2021/09/23 01:00:00;;;;;;;12.93;4.30;;;;;;;15.27;88.67;100755.11;2856903;83;20964;-67
2021/09/23 01:04:02;;;;;;;15.80;4.50;;;;;;;15.31;87.97;100750.80;2866658;83;21038;-67
2021/09/23 01:08:04;;;;;;;11.00;4.97;;;;;;;15.31;87.38;100740.08;2867015;80;20932;-67
2021/09/23 01:12:07;;;;;;;9.78;4.67;;;;;;;15.21;86.47;100746.31;2867345;82;21043;-67
2021/09/23 01:16:12;;;;;;;10.45;4.90;;;;;;;15.11;86.23;100753.04;2866858;82;21015;-67
2021/09/23 01:20:17;;;;;;;17.45;4.67;;;;;;;15.05;86.52;100755.45;2866994;83;21085;-68
2021/09/23 01:24:19;;;;;;;9.60;5.77;;;;;;;15.02;86.76;100757.91;2901107;81;20988;-67
2021/09/23 01:28:22;;;;;;;9.20;3.77;;;;;;;15.02;86.71;100761.92;2917431;81;20967;-67
2021/09/23 01:32:23;;;;;;;12.95;4.25;;;;;;;14.94;86.50;100757.31;2917006;81;21018;-67
2021/09/23 01:36:25;;;;;;;15.63;5.37;;;;;;;14.77;87.00;100758.86;2916566;79;20976;-68
2021/09/23 01:40:30;;;;;;;16.93;4.80;;;;;;;14.63;88.37;100752.07;2917161;81;20995;-67
2021/09/23 01:44:33;;;;;;;11.57;4.33;;;;;;;14.65;89.50;100748.75;2917585;81;20983;-67
2021/09/23 01:48:36;;;;;;;12.00;4.35;;;;;;;14.66;89.13;100745.09;2917363;81;21063;-66
2021/09/23 01:52:56;;;;;;;7.92;3.67;;;;;;;14.74;89.77;100751.59;2917157;81;21073;-66
2021/09/23 01:56:57;;;;;;;13.18;4.60;;;;;;;14.79;89.32;100735.45;2916877;81;21007;-68
2021/09/23 02:01:00;;;;;;;11.57;4.80;;;;;;;14.83;89.88;100731.50;2916525;80;21003;-67
2021/09/23 02:05:05;;;;;;;16.80;4.87;;;;;;;14.85;89.04;100714.82;2916937;81;21042;-67
2021/09/23 02:09:06;;;;;;;9.90;3.67;;;;;;;14.87;89.28;100711.98;2917422;81;21012;-67
2021/09/23 02:13:08;;;;;;;8.73;4.87;;;;;;;14.84;89.07;100704.23;2916987;81;21010;-66
2021/09/23 02:17:10;;;;;;;10.43;5.05;;;;;;;14.82;89.42;100698.18;2916893;81;20932;-67
2021/09/23 02:21:14;;;;;;;15.72;5.17;;;;;;;14.77;89.34;100693.76;2916949;81;21012;-67
2021/09/23 02:25:18;;;;;;;9.75;5.15;;;;;;;14.74;89.15;100692.20;2916841;81;21914;-67
2021/09/23 02:29:20;;;;;;;8.48;4.65;;;;;;;14.72;89.33;100695.52;2917098;80;20991;-67
2021/09/23 02:33:22;;;;;;;12.05;5.17;;;;;;;14.70;89.73;100696.95;2917269;81;21003;-67
2021/09/23 02:37:30;;;;;;;12.53;4.92;;;;;;;14.70;89.83;100694.78;2916745;80;21042;-68
2021/09/23 02:41:32;;;;;;;15.83;5.05;;;;;;;14.68;89.78;100680.70;2916796;79;20968;-67
2021/09/23 02:45:34;;;;;;;7.50;3.92;;;;;;;14.64;89.52;100677.94;2916621;79;20967;-67
2021/09/23 02:49:37;;;;;;;11.18;4.85;;;;;;;14.64;89.80;100674.78;2917066;80;21026;-67
2021/09/23 02:53:39;;;;;;;11.12;5.30;;;;;;;14.62;89.67;100674.08;2916318;81;21042;-67
2021/09/23 02:57:41;;;;;;;12.03;6.08;;;;;;;14.62;89.30;100665.19;2916386;81;20975;-66
2021/09/23 03:01:43;;;;;;;11.90;5.50;;;;;;;14.54;89.70;100662.75;2916876;81;20995;-66
2021/09/23 03:05:45;;;;;;;9.48;4.37;;;;;;;14.54;89.98;100661.41;2893043;81;20991;-67
2021/09/23 03:09:47;;;;;;;15.25;4.62;;;;;;;14.56;90.00;100657.27;2905682;81;20995;-66
2021/09/23 03:13:49;;;;;;;11.97;5.28;;;;;;;14.59;90.33;100656.97;2916811;79;20984;-67
2021/09/23 03:17:50;;;;;;;12.88;5.90;;;;;;;14.63;90.63;100650.81;2916786;81;20972;-67
2021/09/23 03:21:55;;;;;;;19.50;5.58;;;;;;;14.67;90.24;100634.33;2917120;81;21001;-67
2021/09/23 03:25:58;;;;;;;12.03;5.03;;;;;;;14.65;90.13;100625.59;2870421;81;21062;-67
2021/09/23 03:30:01;;;;;;;22.32;6.90;;;;;;;14.66;89.57;100620.59;2867019;82;21046;-67
2021/09/23 03:34:04;;;;;;;13.93;4.65;;;;;;;14.65;89.73;100620.24;2867038;83;20987;-67
2021/09/23 03:38:08;;;;;;;14.35;5.35;;;;;;;14.66;89.07;100613.07;2866966;83;21046;-67
2021/09/23 03:42:10;;;;;;;11.70;4.40;;;;;;;14.68;88.82;100606.56;2867422;83;21031;-67
2021/09/23 03:46:13;;;;;;;9.65;5.05;;;;;;;14.68;88.19;100609.23;2867006;83;21470;-67
2021/09/23 03:50:17;;;;;;;14.73;6.37;;;;;;;14.67;87.68;100607.55;2833957;83;20998;-67
2021/09/23 03:54:19;;;;;;;8.38;5.12;;;;;;;14.71;87.98;100611.66;2867212;83;20999;-68
2021/09/23 03:58:21;;;;;;;10.88;4.85;;;;;;;14.71;87.93;100612.99;2866827;81;21082;-67
2021/09/23 04:02:24;;;;;;;11.80;5.00;;;;;;;14.70;88.48;100611.27;2895137;80;20995;-69
2021/09/23 04:06:27;;;;;;;14.15;4.97;;;;;;;14.78;88.76;100611.92;2916910;81;21007;-68
2021/09/23 04:10:30;;;;;;;12.25;5.97;;;;;;;14.83;89.08;100603.46;2917134;81;21042;-66
2021/09/23 04:14:33;;;;;;;7.78;4.67;;;;;;;14.88;88.67;100603.03;2916638;80;21007;-66
2021/09/23 04:18:35;;;;;;;12.37;5.08;;;;;;;14.82;88.51;100592.41;2953074;80;20937;-66
2021/09/23 04:22:37;;;;;;;20.55;6.22;;;;;;;14.80;88.75;100598.41;2942609;80;20987;-67
2021/09/23 04:26:41;;;;;;;11.28;5.33;;;;;;;14.78;89.14;100594.52;2916771;81;20972;-66
2021/09/23 04:30:45;;;;;;;13.40;5.35;;;;;;;14.76;89.03;100585.79;2945210;80;20995;-66
2021/09/23 04:34:48;;;;;;;11.50;5.65;;;;;;;14.67;88.76;100583.45;2892873;80;21064;-66
2021/09/23 04:38:59;;;;;;;9.20;6.83;;;;;;;14.61;88.37;100572.00;2901113;80;20944;-66
2021/09/23 04:43:05;;;;;;;12.15;6.00;;;;;;;14.55;88.43;100573.42;2875831;81;20983;-67
2021/09/23 04:47:14;;;;;;;10.80;5.80;;;;;;;14.51;88.26;100565.34;2835196;83;21030;-64
2021/09/23 04:51:16;;;;;;;7.70;5.17;;;;;;;14.49;87.80;100571.81;2867204;83;21010;-67
2021/09/23 04:55:20;;;;;;;10.93;5.72;;;;;;;14.45;87.59;100573.09;2867076;83;21473;-66
2021/09/23 04:59:25;;;;;;;11.48;7.03;;;;;;;14.40;86.93;100569.50;2866707;82;20979;-66
2021/09/23 05:03:28;;;;;;;9.93;5.75;;;;;;;14.33;86.94;100570.56;2866996;82;21370;-67
2021/09/23 05:07:42;;;;;;;10.40;5.62;;;;;;;14.21;87.32;100573.06;2867192;82;21038;-66
2021/09/23 05:11:43;;;;;;;18.70;6.90;;;;;;;14.20;87.38;100570.05;2867233;83;21011;-67
2021/09/23 05:15:48;;;;;;;19.20;7.67;;;;;;;14.11;87.85;100567.22;2867187;83;21022;-67
2021/09/23 05:19:51;;;;;;;19.67;7.60;;;;;;;14.11;88.03;100562.37;2867020;83;20967;-67
2021/09/23 05:23:53;;;;;;;9.73;6.45;;;;;;;14.11;88.11;100560.53;2867610;83;21058;-67
2021/09/23 05:27:56;;;;;;;16.60;7.92;;;;;;;14.27;89.54;100553.76;2866864;82;20956;-66
2021/09/23 05:31:58;;;;;;;14.38;7.83;;;;;;;14.52;89.59;100542.93;2867114;83;21014;-66
2021/09/23 05:36:01;;;;;;;9.58;7.67;;;;;;;14.83;89.08;100534.66;2866839;83;21011;-66
2021/09/23 05:40:08;;;;;;;10.53;6.85;;;;;;;15.15;88.24;100545.95;2880015;80;20929;-66
2021/09/23 05:44:09;;;;;;;;;;;;;;;15.38;87.20;100533.47;2918215;81;21034;-66
2021/09/23 05:48:11;;;;;;;19.90;11.12;;;;;;;15.73;87.59;100530.95;2915918;81;20113;-66
2021/09/23 05:52:16;;;;;;;19.00;8.03;;;;;;;16.06;86.68;100529.41;2915741;81;20974;-66
2021/09/23 05:56:16;;;;;;;21.27;10.38;;;;;;;16.33;85.58;100537.49;2915394;81;20999;-66
2021/09/23 06:00:21;;;;;;;11.50;7.90;;;;;;;16.48;84.42;100536.41;2915788;81;20908;-66
2021/09/23 06:04:24;;;;;;;25.05;9.50;;;;;;;16.49;84.03;100536.74;2917187;81;21014;-66
2021/09/23 06:08:26;;;;;;;12.28;7.67;;;;;;;16.34;83.42;100531.98;2896429;81;21061;-66
2021/09/23 06:12:28;;;;;;;28.17;9.98;;;;;;;16.22;83.74;100529.20;2917169;81;21078;-66
2021/09/23 06:16:30;;;;;;;20.65;9.50;;;;;;;16.10;84.35;100525.41;2917467;81;20959;-66
2021/09/23 06:20:44;;;;;;;10.53;8.05;;;;;;;16.01;84.78;100521.00;2917657;81;20947;-67
2021/09/23 06:24:45;;;;;;;15.85;8.70;;;;;;;16.01;85.33;100518.31;2916966;81;21046;-67
2021/09/23 06:28:47;;;;;;;14.35;7.40;;;;;;;16.11;85.53;100509.69;2917510;81;20959;-67
2021/09/23 06:32:49;;;;;;;8.53;6.80;;;;;;;16.19;85.02;100508.88;2917302;81;21021;-66
2021/09/23 06:36:54;;;;;;;13.72;6.67;;;;;;;16.34;85.34;100505.14;2917132;81;21007;-66
2021/09/23 06:40:56;;;;;;;13.65;6.65;;;;;;;16.60;85.41;100496.20;2917317;81;20991;-66
2021/09/23 06:44:58;;;;;;;10.80;7.65;;;;;;;16.80;84.93;100499.50;2917555;81;20940;-66
2021/09/23 06:49:01;;;;;;;10.80;7.40;;;;;;;17.08;84.73;100497.08;2917323;81;21034;-66
2021/09/23 06:53:05;;;;;;;13.35;7.55;;;;;;;17.33;83.92;100493.95;2917757;81;20994;-66
2021/09/23 06:57:08;;;;;;;13.15;9.35;;;;;;;17.45;82.84;100492.31;2917622;81;20951;-67
2021/09/23 07:01:10;;;;;;;11.57;7.85;;;;;;;17.55;83.00;100492.98;2916866;81;21038;-66
2021/09/23 07:05:13;;;;;;;14.28;8.53;;;;;;;17.65;82.71;100495.50;2913863;81;21012;-66
2021/09/23 07:09:15;;;;;;;11.33;9.60;;;;;;;17.65;82.05;100493.67;2914395;81;21511;-66
2021/09/23 07:13:19;;;;;;;13.62;9.55;;;;;;;17.64;83.19;100494.69;2914544;81;20976;-66
2021/09/23 07:17:21;;;;;;;14.87;9.48;;;;;;;17.69;83.36;100478.05;2914430;81;20999;-66
2021/09/23 07:21:23;;;;;;;17.17;10.05;;;;;;;17.63;82.70;100472.83;2914368;81;20944;-66
2021/09/23 07:25:25;;;;;;;14.95;10.03;;;;;;;17.59;82.69;100467.45;2914254;81;20964;-65
2021/09/23 07:29:27;;;;;;;18.40;11.38;;;;;;;17.59;83.03;100476.87;2913743;81;21004;-67
2021/09/23 07:33:30;;;;;;;15.83;11.25;;;;;;;17.59;83.06;100482.73;2914561;81;21015;-66
2021/09/23 07:37:33;;;;;;;13.18;9.75;;;;;;;17.57;83.16;100480.20;2914347;81;20992;-66
2021/09/23 07:41:37;;;;;;;15.20;10.05;;;;;;;17.65;83.04;100479.37;2913123;81;21035;-66
2021/09/23 07:45:47;;;;;;;14.93;9.40;;;;;;;17.72;82.86;100475.02;2907519;82;21006;-66
2021/09/23 07:49:50;;;;;;;17.05;12.35;;;;;;;17.87;82.90;100462.20;2908839;82;20999;-66
2021/09/23 07:53:52;;;;;;;13.72;11.05;;;;;;;18.06;82.71;100461.88;2909044;81;21057;-66
2021/09/23 07:57:53;;;;;;;15.72;9.90;;;;;;;18.25;82.29;100453.95;2917057;81;21045;-67
2021/09/23 08:01:57;;;;;;;16.60;10.70;;;;;;;18.50;81.18;100447.65;2916273;81;20999;-66
2021/09/23 08:05:58;;;;;;;20.20;12.30;;;;;;;18.67;81.04;100442.53;2916757;81;21087;-66
2021/09/23 08:10:00;;;;;;;14.60;12.13;;;;;;;18.80;79.63;100420.90;2916894;81;20967;-66
2021/09/23 08:14:01;;;;;;;20.25;12.03;;;;;;;18.90;79.70;100413.44;2916938;81;21062;-66
2021/09/23 08:18:03;;;;;;;19.57;12.93;;;;;;;19.02;80.40;100420.64;2917012;81;20967;-66
2021/09/23 08:22:10;;;;;;;18.52;12.73;;;;;;;19.15;79.18;100425.94;2934082;80;29255;-66
2021/09/23 08:26:12;;;;;;;14.70;11.12;;;;;;;19.29;79.57;100422.47;2947730;80;20976;-66
2021/09/23 08:30:14;;;;;;;15.35;10.40;;;;;;;19.30;78.15;100420.63;2920493;80;21031;-65
2021/09/23 08:34:16;;;;;;;13.25;10.58;;;;;;;19.13;77.75;100414.00;2909013;79;21022;-66
2021/09/23 08:38:47;;;;;;;22.07;12.78;;;;;;;19.00;78.13;100411.05;2913990;81;21030;-66
2021/09/23 08:42:49;;;;;;;16.75;13.05;;;;;;;18.89;79.17;100409.56;2944456;80;21023;-66
2021/09/23 08:46:50;;;;;;;17.10;13.65;;;;;;;18.98;79.17;100402.63;2930852;81;21223;-66
2021/09/23 08:50:53;;;;;;;22.32;13.00;;;;;;;19.25;79.75;100390.15;2903107;81;21010;-66
2021/09/23 08:54:56;;;;;;;17.70;14.50;;;;;;;19.59;79.34;100393.40;2909029;82;20970;-67
2021/09/23 08:58:58;;;;;;;19.67;14.45;;;;;;;19.81;77.88;100377.66;2908935;82;20977;-67
2021/09/23 09:03:05;;;;;;;22.62;14.98;;;;;;;19.84;76.87;100373.23;2909047;81;21085;-67
2021/09/23 09:07:10;;;;;;;23.12;13.78;;;;;;;19.68;75.90;100370.73;2909412;81;21006;-66
2021/09/23 09:11:14;;;;;;;22.65;17.32;;;;;;;19.46;77.02;100363.86;2921257;81;20983;-66
2021/09/23 09:15:17;;;;;;;27.20;20.10;;;;;;;19.46;77.08;100358.46;2926531;81;21003;-66
2021/09/23 09:19:19;;;;;;;25.97;17.60;;;;;;;19.48;76.62;100358.27;2926203;81;20959;-66
2021/09/23 09:23:24;;;;;;;23.22;16.00;;;;;;;19.47;76.34;100365.53;2920593;80;21113;-66
2021/09/23 09:27:43;;;;;;;24.82;17.15;;;;;;;19.57;76.35;100354.98;2899244;81;20975;-67
2021/09/23 09:31:48;;;;;;;20.72;15.35;;;;;;;19.69;77.10;100352.17;2895546;81;20991;-66
2021/09/23 09:35:50;;;;;;;19.55;17.42;;;;;;;19.94;76.74;100327.64;2917983;80;21050;-67
2021/09/23 09:40:15;;;;;;;31.25;18.52;;;;;;;20.12;76.51;100338.89;2925931;81;21040;-66
2021/09/23 09:44:19;;;;;;;24.60;17.67;;;;;;;20.39;76.50;100336.52;2926260;81;20958;-68
2021/09/23 09:48:34;;;;;;;22.00;13.95;;;;;;;20.61;74.78;100319.52;2926333;80;21078;-69
2021/09/23 09:52:36;;;;;;;20.10;17.65;;;;;;;20.75;73.09;100304.27;2911019;81;20987;-70
2021/09/23 09:56:43;;;;;;;22.62;15.40;;;;;;;20.85;73.97;100274.24;2905454;81;20951;-69
2021/09/23 10:00:45;;;;;;;23.25;15.25;;;;;;;21.07;73.23;100264.25;2909428;81;21034;-69
2021/09/23 10:04:48;;;;;;;21.65;14.47;;;;;;;21.28;73.13;100265.23;2901095;81;21015;-68
2021/09/23 10:08:52;;;;;;;21.20;13.88;;;;;;;21.31;71.96;100256.72;2888623;81;21015;-68
2021/09/23 10:12:58;;;;;;;18.50;14.33;;;;;;;21.41;72.27;100245.02;2884957;81;21012;-69
2021/09/23 10:17:00;;;;;;;20.57;13.38;;;;;;;21.45;73.86;100236.84;2916794;81;20994;-68
2021/09/23 10:21:04;;;;;;;15.80;11.48;;;;;;;21.61;71.48;100231.62;2916048;81;21046;-69
2021/09/23 10:25:15;;;;;;;13.38;11.45;;;;;;;21.64;72.70;100216.33;2895888;81;21046;-68
2021/09/23 10:29:17;;;;;;;14.87;10.15;;;;;;;21.84;71.52;100207.48;2867029;83;21038;-69
2021/09/23 10:33:23;;;;;;;9.08;6.53;;;;;;;21.99;71.19;100203.27;2910198;80;21244;-68
2021/09/23 10:37:37;;;;;;;11.55;10.05;;;;;;;21.96;69.08;100176.59;2879822;81;21011;-68
2021/09/23 10:41:44;;;;;;;9.88;7.47;;;;;;;21.85;69.95;100178.55;2866947;82;21027;-69
2021/09/23 10:45:50;;;;;;;9.20;6.37;;;;;;;21.76;69.07;100169.78;2918762;81;20947;-69
2021/09/23 10:49:52;;;;;;;8.73;6.17;;;;;;;21.67;68.20;100167.23;2927666;78;20999;-70
2021/09/23 10:54:05;;;;;;;6.22;5.62;;;;;;;21.67;69.26;100163.70;2896931;80;20923;-69
2021/09/23 10:58:11;;;;;;;8.05;4.67;;;;;;;21.80;68.57;100161.02;2949655;80;20976;-69
2021/09/23 11:02:47;;;;;;;5.58;2.92;;;;;;;21.89;68.37;100151.38;2907564;80;21003;-68
2021/09/23 11:06:58;;;;;;;5.50;3.80;;;;;;;22.00;66.23;100144.00;2866877;81;21096;-68
2021/09/23 11:11:22;;;;;;;4.30;3.37;;;;;;;21.99;66.04;100132.86;2891813;81;21086;-68
2021/09/23 11:15:29;;;;;;;3.90;3.10;;;;;;;21.96;65.19;100128.70;2859047;81;20963;-67
2021/09/23 11:19:40;;;;;;;8.65;5.45;;;;;;;21.96;65.52;100135.98;2885841;80;21034;-69
2021/09/23 11:24:26;;;;;;;8.30;2.83;;;;;;;21.99;65.40;100115.25;2832145;81;21027;-69
2021/09/23 11:28:32;;;;;;;4.37;3.12;;;;;;;22.09;65.96;100114.34;2913517;81;21007;-69
2021/09/23 11:32:35;;;;;;;;;;;;;;;;;;2921501;80;21011;-69
2021/09/23 11:36:47;;;;;;;4.20;3.27;;;;;;;22.24;64.93;100088.95;2914782;81;20094;-69
2021/09/23 11:40:48;;;;;;;3.20;2.80;;;;;;;22.28;63.33;100083.42;2914806;81;20991;-68
2021/09/23 11:45:12;;;;;;;5.35;3.45;;;;;;;22.24;62.70;100073.52;2916953;81;20994;-69
2021/09/23 11:49:15;;;;;;;5.90;3.33;;;;;;;22.28;64.05;100063.61;2896891;81;21514;-68
2021/09/23 11:53:33;;;;;;;2.37;2.17;;;;;;;22.32;64.17;100044.02;2870976;81;20986;-67
2021/09/23 11:57:46;;;;;;;5.42;3.27;;;;;;;22.43;63.46;100048.52;2891850;81;21042;-70
2021/09/23 12:02:05;;;;;;;5.00;3.50;;;;;;;22.50;62.30;100028.52;2916847;81;21026;-69
2021/09/23 12:06:30;;;;;;;;;;;;;;;;;;;;;
2021/09/23 12:10:20;;;;;;;7.45;3.67;;;;;;;22.38;62.17;100023.39;2887955;82;20996;-69
2021/09/23 12:14:22;;;;;;;3.52;2.62;;;;;;;22.36;64.58;100027.66;2860177;83;21018;-69
2021/09/23 12:18:36;;;;;;;2.45;2.08;;;;;;;22.37;61.92;100006.28;2868425;82;21058;-69
2021/09/23 12:22:38;;;;;;;4.60;3.02;;;;;;;22.30;60.11;100013.60;2809152;83;21017;-69
2021/09/23 12:26:41;;;;;;;2.92;2.33;;;;;;;22.14;60.78;100005.90;2875742;82;20975;-69
2021/09/23 12:30:51;;;;;;;4.17;2.80;;;;;;;22.02;62.62;99998.42;2836521;83;20978;-69
2021/09/23 12:34:50;;;;;;;4.78;3.37;;;;;;;21.93;63.34;99999.66;2856909;83;21042;-70
2021/09/23 12:39:51;;;;;;;22.50;2.25;;;;;;;21.87;63.51;99993.19;2866326;83;21069;-69
2021/09/23 12:44:08;;;;;;;4.97;2.35;;;;;;;21.77;61.41;99984.66;2842296;83;20991;-69
2021/09/23 12:48:16;;;;;;;6.12;2.58;;;;;;;21.60;60.98;99969.30;2861306;81;21033;-70
2021/09/23 12:52:22;;;;;;;6.33;3.30;;;;;;;21.49;62.29;99950.45;2871939;83;21027;-70
2021/09/23 12:56:25;;;;;;;2.47;2.27;;;;;;;21.48;64.02;99950.13;2872156;82;21019;-69
2021/09/23 13:00:33;;;;;;;2.70;2.50;;;;;;;21.50;61.47;99931.81;2871588;83;21066;-69
2021/09/23 13:04:35;;;;;;;4.55;2.40;;;;;;;21.53;63.47;99939.02;2843258;83;21003;-69
2021/09/23 13:08:42;;;;;;;3.67;2.65;;;;;;;21.59;62.99;99928.39;2824711;84;21054;-69
2021/09/23 13:13:09;;;;;;;4.28;2.65;;;;;;;21.66;63.04;99928.74;2837224;84;20984;-68
2021/09/23 13:17:29;;;;;;;5.25;2.80;;;;;;;21.75;64.04;99923.95;2809191;84;21027;-72
2021/09/23 13:21:55;;;;;;;4.37;2.80;;;;;;;21.85;63.77;99920.83;2809469;84;21011;-72
2021/09/23 13:26:13;;;;;;;6.15;3.27;;;;;;;21.89;63.50;99907.71;2813274;84;21020;-71
2021/09/23 13:30:16;;;;;;;4.17;3.10;;;;;;;21.91;65.04;99890.73;2836693;84;21385;-71
2021/09/23 13:34:24;;;;;;;6.62;3.00;;;;;;;21.88;63.54;99877.63;2838071;84;20993;-70
2021/09/23 13:38:28;;;;;;;4.80;2.70;;;;;;;21.79;64.19;99871.06;2837842;84;21076;-68
2021/09/23 13:42:30;;;;;;;3.42;3.10;;;;;;;21.69;64.53;99867.96;2837724;84;21033;-69
2021/09/23 13:46:32;;;;;;;3.67;3.00;;;;;;;21.64;63.79;99856.37;2815065;84;20960;-69
2021/09/23 13:50:53;;;;;;;6.37;3.67;;;;;;;21.58;64.02;99862.63;2850630;83;21000;-69
2021/09/23 13:54:57;;;;;;;8.88;3.08;;;;;;;21.54;63.52;99858.14;2825045;84;21021;-69
2021/09/23 13:59:14;;;;;;;3.60;3.15;;;;;;;21.46;64.25;99853.47;2825530;84;21020;-68
2021/09/23 14:03:16;;;;;;;4.67;2.80;;;;;;;21.39;64.98;99843.48;2797114;84;21091;-68
2021/09/23 14:07:19;;;;;;;5.55;3.52;;;;;;;21.33;65.50;99836.72;2777342;84;21079;-68
2021/09/23 14:11:21;;;;;;;8.25;3.52;;;;;;;21.25;64.80;99826.43;2793411;84;21059;-69
2021/09/23 14:15:23;;;;;;;5.30;3.85;;;;;;;21.21;65.54;99823.80;2802843;84;21024;-68
2021/09/23 14:19:25;;;;;;;5.58;3.77;;;;;;;21.18;66.60;99811.23;2778191;85;21067;-69
2021/09/23 14:23:29;;;;;;;5.35;4.10;;;;;;;21.13;66.94;99802.38;2788246;84;20976;-69
2021/09/23 14:27:31;;;;;;;4.20;3.42;;;;;;;21.14;67.04;99783.77;2763923;83;21005;-67
2021/09/23 14:31:33;;;;;;;4.37;3.50;;;;;;;21.13;66.05;99776.70;2806020;84;20985;-68
2021/09/23 14:35:35;;;;;;;4.85;2.65;;;;;;;21.11;66.81;99767.96;2824895;84;21011;-68
2021/09/23 14:39:37;;;;;;;5.17;3.87;;;;;;;21.09;66.61;99760.05;2825600;84;21016;-68
2021/09/23 14:43:49;;;;;;;4.15;3.70;;;;;;;21.10;66.29;99752.78;2786542;84;21043;-68
2021/09/23 14:47:51;;;;;;;3.83;3.22;;;;;;;21.12;67.02;99745.29;2778434;85;21096;-68
2021/09/23 14:51:54;;;;;;;5.90;3.12;;;;;;;21.14;67.05;99741.85;2777329;85;20996;-69
2021/09/23 14:56:15;;;;;;;6.62;4.28;;;;;;;21.16;68.25;99734.36;2793787;84;21012;-69
2021/09/23 15:00:19;;;;;;;3.87;3.20;;;;;;;21.13;68.37;99728.02;2810474;84;21090;-69
2021/09/23 15:04:21;;;;;;;4.42;4.00;;;;;;;21.15;69.14;99723.23;2825966;83;21332;-68
2021/09/23 15:08:23;;;;;;;3.30;2.98;;;;;;;21.21;69.67;99710.22;2816722;84;21042;-68
2021/09/23 15:12:25;;;;;;;4.45;3.92;;;;;;;21.21;69.19;99703.45;2852365;82;21115;-69
2021/09/23 15:16:29;;;;;;;5.92;3.58;;;;;;;21.16;68.96;99694.34;2852692;82;21017;-67
2021/09/23 15:20:33;;;;;;;3.92;3.15;;;;;;;21.10;69.13;99683.30;2852693;82;21049;-68
2021/09/23 15:24:44;;;;;;;5.63;3.53;;;;;;;21.04;69.18;99676.03;2852455;83;21337;-67
2021/09/23 15:29:05;;;;;;;5.05;4.20;;;;;;;21.00;69.28;99668.03;2843716;83;21082;-69
2021/09/23 15:33:41;;;;;;;6.00;3.83;;;;;;;20.96;69.62;99656.80;2843740;83;20991;-67
2021/09/23 15:37:43;;;;;;;9.58;4.25;;;;;;;20.94;69.52;99647.26;2843831;80;21050;-70
2021/09/23 15:41:47;;;;;;;4.47;3.80;;;;;;;20.90;68.98;99633.83;2837915;83;21076;-70
2021/09/23 15:45:50;;;;;;;8.95;3.92;;;;;;;20.84;68.32;99622.01;2798803;83;21516;-69
2021/09/23 15:49:52;;;;;;;4.22;3.72;;;;;;;20.77;68.41;99614.38;2829904;83;21055;-68
2021/09/23 15:53:53;;;;;;;5.20;3.72;;;;;;;20.73;67.90;99611.25;2778748;85;21023;-68
2021/09/23 15:58:03;;;;;;;5.62;3.70;;;;;;;20.68;67.89;99597.04;2823410;81;21062;-69
2021/09/23 16:02:09;;;;;;;6.78;4.40;;;;;;;20.64;68.20;99590.41;2748160;86;20980;-68
2021/09/23 16:06:09;;;;;;;5.22;3.50;;;;;;;20.60;68.59;99581.56;2802776;84;21004;-69
2021/09/23 16:10:17;;;;;;;6.45;4.90;;;;;;;20.53;68.26;99578.86;2831365;83;21122;-68
2021/09/23 16:14:19;;;;;;;5.03;3.60;;;;;;;20.52;68.33;99577.20;2870493;83;21017;-67
2021/09/23 16:18:21;;;;;;;7.00;4.35;;;;;;;20.50;68.06;99571.19;2870427;83;21060;-67
2021/09/23 16:22:24;;;;;;;4.33;3.75;;;;;;;20.49;68.38;99563.58;2870992;83;21048;-68
2021/09/23 16:26:26;;;;;;;5.15;4.12;;;;;;;20.46;68.50;99546.98;2864848;83;21022;-68
2021/09/23 16:30:28;;;;;;;6.10;4.28;;;;;;;20.43;68.40;99554.13;2859118;83;21070;-69
2021/09/23 16:34:30;;;;;;;7.28;4.83;;;;;;;20.36;68.80;99551.45;2858624;83;21310;-68
2021/09/23 16:38:32;;;;;;;5.37;4.17;;;;;;;20.32;69.17;99545.63;2859533;83;21073;-69
2021/09/23 16:42:36;;;;;;;7.00;4.92;;;;;;;20.25;69.73;99543.46;2842904;83;21065;-68
2021/09/23 16:46:41;;;;;;;7.85;4.55;;;;;;;20.18;69.84;99535.36;2839530;83;21003;-68
2021/09/23 16:50:51;;;;;;;4.80;3.58;;;;;;;20.14;69.96;99529.22;2863307;83;21030;-69
2021/09/23 16:54:58;;;;;;;5.20;3.87;;;;;;;20.08;70.04;99526.32;2816200;84;21046;-69
2021/09/23 16:59:08;;;;;;;6.03;4.17;;;;;;;20.01;70.35;99520.60;2832791;83;21048;-70
2021/09/23 17:03:15;;;;;;;7.83;3.90;;;;;;;19.94;70.73;99519.24;2852581;83;21403;-69
2021/09/23 17:07:20;;;;;;;4.70;4.25;;;;;;;19.90;70.86;99513.92;2842972;83;21042;-68
2021/09/23 17:11:38;;;;;;;7.35;3.98;;;;;;;19.86;70.71;99509.98;2872510;81;20995;-69
2021/09/23 17:15:40;;;;;;;6.25;3.60;;;;;;;19.80;70.93;99507.05;2793749;84;20999;-69
2021/09/23 17:20:07;;;;;;;4.12;3.67;;;;;;;19.79;70.91;99509.43;2823982;83;20982;-66
2021/09/23 17:24:09;;;;;;;6.17;4.25;;;;;;;19.75;71.03;99494.70;2823865;84;20963;-68
2021/09/23 17:28:11;;;;;;;10.93;4.45;;;;;;;19.74;70.56;99486.80;2823659;84;21014;-69
2021/09/23 17:32:15;;;;;;;6.55;3.75;;;;;;;19.75;70.59;99490.65;2823822;84;21065;-69
2021/09/23 17:36:23;;;;;;;4.47;3.55;;;;;;;19.79;70.38;99482.98;2843706;82;21279;-70
2021/09/23 17:40:23;;;;;;;10.63;4.83;;;;;;;19.79;70.30;99478.41;2880019;82;21082;-70
2021/09/23 17:44:27;;;;;;;4.85;4.12;;;;;;;19.82;70.22;99477.17;2881159;78;20979;-70
2021/09/23 17:48:42;;;;;;;8.43;4.40;;;;;;;19.86;69.38;99476.25;2880926;82;21022;-70
2021/09/23 17:52:45;;;;;;;6.90;4.35;;;;;;;19.88;69.01;99470.13;2881223;82;21050;-70
2021/09/23 17:57:13;;;;;;;9.90;4.42;;;;;;;19.88;68.45;99460.14;2881310;80;21011;-68
2021/09/23 18:01:20;;;;;;;9.73;4.72;;;;;;;19.90;67.97;99450.50;2876148;80;21030;-68
2021/09/23 18:05:26;;;;;;;7.83;4.20;;;;;;;19.91;67.19;99433.27;2833913;84;20980;-67
2021/09/23 18:09:40;;;;;;;7.15;4.62;;;;;;;19.94;66.74;99428.30;2818103;83;21052;-69
2021/09/23 18:13:44;;;;;;;4.85;3.72;;;;;;;19.99;65.80;99426.33;2833657;84;21027;-67
2021/09/23 18:17:47;;;;;;;4.35;3.52;;;;;;;20.02;65.42;99418.34;2834046;83;21043;-68
2021/09/23 18:21:52;;;;;;;5.33;3.80;;;;;;;20.01;65.28;99420.20;2834250;83;21047;-69
2021/09/23 18:25:56;;;;;;;5.77;3.63;;;;;;;20.02;64.47;99422.39;2834601;84;21020;-68
2021/09/23 18:30:00;;;;;;;8.27;3.50;;;;;;;20.02;64.25;99415.64;2834566;82;21000;-69
2021/09/23 18:34:03;;;;;;;4.47;3.25;;;;;;;20.04;63.39;99401.42;2833874;84;21295;-68
2021/09/23 18:38:18;;;;;;;4.60;3.62;;;;;;;20.05;63.50;99390.42;2833983;84;21047;-68
2021/09/23 18:42:20;;;;;;;4.80;4.00;;;;;;;20.07;63.25;99387.50;2833884;84;21063;-67
2021/09/23 18:46:23;;;;;;;8.25;3.55;;;;;;;20.06;63.52;99385.34;2833943;82;21055;-68
2021/09/23 18:50:25;;;;;;;5.20;4.00;;;;;;;20.07;62.34;99375.34;2833605;84;21004;-70
2021/09/23 18:54:27;;;;;;;6.22;3.33;;;;;;;20.11;62.70;99371.19;2864412;82;21146;-69
2021/09/23 18:58:58;;;;;;;4.83;2.85;;;;;;;20.14;62.56;99371.30;2833864;84;21304;-68
2021/09/23 19:03:09;;;;;;;6.67;3.47;;;;;;;20.14;61.74;99356.45;2847006;82;21047;-69
2021/09/23 19:07:10;;;;;;;6.03;4.25;;;;;;;20.22;61.83;99363.80;2863722;83;21022;-68